Time;durP1;ratioP1;P1;durP2;ratioP2;P2;SDS_P1;SDS_P2;PMS_P1;PMS_P2;Temp;Humidity;BMP_temperature;BMP_pressure;BME280_temperature;BME280_humidity;BME280_pressure;Samples;Min_cycle;Max_cycle;Signal;HPM_P1;HPM_P2
2022/07/02 00:02:17;;;;;;;3.23;1.67;;;13.70;99.90;;;;;;5010232;28;20665;-81
2022/07/02 00:04:46;;;;;;;4.17;2.20;;;13.70;99.90;;;;;;5007886;28;20668;-81
2022/07/02 00:07:12;;;;;;;11.40;1.60;;;13.70;99.90;;;;;;5007121;28;21063;-82
2022/07/02 00:09:38;;;;;;;2.60;1.30;;;13.80;99.90;;;;;;5005612;28;20215;-81
2022/07/02 00:12:05;;;;;;;4.30;2.03;;;13.80;99.90;;;;;;5003563;28;20241;-82
2022/07/02 00:14:33;;;;;;;2.60;1.70;;;13.80;99.90;;;;;;5007734;28;20238;-80
2022/07/02 00:17:00;;;;;;;4.93;2.00;;;13.90;99.90;;;;;;5039345;28;20195;-81
2022/07/02 00:19:26;;;;;;;2.50;1.93;;;13.90;99.90;;;;;;5005057;28;20234;-82
2022/07/02 00:21:53;;;;;;;3.37;1.73;;;13.90;99.90;;;;;;5006727;28;20234;-82
2022/07/02 00:24:19;;;;;;;4.03;2.03;;;13.80;99.90;;;;;;5036241;28;20235;-82
2022/07/02 00:26:57;;;;;;;4.77;1.60;;;13.80;99.90;;;;;;5009876;28;20222;-82
2022/07/02 00:29:29;;;;;;;3.50;1.73;;;13.80;99.90;;;;;;5003342;28;20210;-82
2022/07/02 00:31:56;;;;;;;4.17;1.80;;;13.80;99.90;;;;;;5007191;28;20351;-81
2022/07/02 00:34:24;;;;;;;5.30;1.70;;;13.80;99.90;;;;;;5020795;28;20797;-82
2022/07/02 00:36:50;;;;;;;1.80;1.10;;;13.80;99.90;;;;;;5004435;28;20222;-80
2022/07/02 00:39:16;;;;;;;3.80;1.87;;;13.80;99.90;;;;;;5003274;28;20211;-81
2022/07/02 00:41:45;;;;;;;3.27;1.30;;;13.80;99.90;;;;;;5019650;28;20693;-82
2022/07/02 00:44:11;;;;;;;5.50;1.37;;;13.80;99.90;;;;;;5010827;28;20179;-82
2022/07/02 00:46:38;;;;;;;7.03;2.00;;;13.80;99.90;;;;;;5004897;28;20249;-82
2022/07/02 00:49:04;;;;;;;3.23;2.40;;;13.70;99.90;;;;;;5036061;28;20219;-81
2022/07/02 00:51:32;;;;;;;2.53;1.20;;;13.80;99.90;;;;;;5008384;28;20254;-83
2022/07/02 00:53:58;;;;;;;3.60;2.10;;;13.80;99.90;;;;;;5005989;28;20313;-82
2022/07/02 00:56:25;;;;;;;2.67;1.30;;;13.70;99.90;;;;;;5006423;28;20611;-82
2022/07/02 00:58:51;;;;;;;6.80;1.93;;;13.70;99.90;;;;;;5008698;28;20196;-82
2022/07/02 01:01:17;;;;;;;4.87;1.20;;;13.70;99.90;;;;;;5006325;28;20680;-82
2022/07/02 01:03:44;;;;;;;2.77;1.20;;;13.80;99.90;;;;;;5019372;28;20672;-83
2022/07/02 01:06:13;;;;;;;2.80;1.00;;;13.80;99.90;;;;;;5004041;28;20313;-82
2022/07/02 01:11:26;;;;;;;3.20;1.93;;;13.80;99.90;;;;;;5007744;28;20195;-81
2022/07/02 01:13:55;;;;;;;7.87;0.73;;;13.90;99.90;;;;;;5005849;28;20222;-82
2022/07/02 01:16:20;;;;;;;1.40;1.17;;;13.90;99.90;;;;;;5003672;28;20320;-82
2022/07/02 01:18:46;;;;;;;1.50;1.10;;;14.00;99.90;;;;;;5002488;28;20755;-81
2022/07/02 01:21:12;;;;;;;2.03;0.80;;;14.00;99.90;;;;;;5035689;28;20223;-81
2022/07/02 01:23:38;;;;;;;4.60;1.50;;;14.00;99.90;;;;;;5003095;28;20198;-81
2022/07/02 01:26:04;;;;;;;2.87;0.80;;;14.10;99.90;;;;;;5006073;28;20318;-81
2022/07/02 01:28:29;;;;;;;1.27;1.07;;;14.10;99.90;;;;;;5005685;28;20225;-82
2022/07/02 01:30:55;;;;;;;5.13;1.10;;;14.10;99.90;;;;;;5007466;28;20230;-81
2022/07/02 01:33:21;;;;;;;5.17;1.53;;;14.10;99.90;;;;;;5008722;28;20302;-82
2022/07/02 01:35:47;;;;;;;1.03;0.93;;;14.20;99.90;;;;;;5007873;28;21123;-81
2022/07/02 01:38:13;;;;;;;1.83;1.73;;;14.20;99.90;;;;;;5004030;28;20187;-82
2022/07/02 01:40:38;;;;;;;8.77;1.63;;;14.10;99.90;;;;;;5004728;28;20214;-81
2022/07/02 01:43:04;;;;;;;1.47;0.70;;;14.10;99.90;;;;;;5001852;28;20268;-83
2022/07/02 01:45:30;;;;;;;2.70;0.90;;;14.10;99.90;;;;;;5003645;28;20223;-81
2022/07/02 01:47:56;;;;;;;4.17;0.60;;;14.00;99.90;;;;;;5006211;28;20230;-81
2022/07/02 01:50:21;;;;;;;1.20;1.10;;;13.90;99.90;;;;;;5003049;28;20651;-79
2022/07/02 01:52:47;;;;;;;1.83;1.20;;;13.90;99.90;;;;;;5006109;28;20301;-81
2022/07/02 01:55:13;;;;;;;5.07;1.53;;;13.90;99.90;;;;;;5008124;28;20234;-81
2022/07/02 01:57:38;;;;;;;3.10;1.30;;;13.80;99.90;;;;;;5005896;28;20404;-81
2022/07/02 02:00:11;;;;;;;1.50;1.00;;;13.80;99.90;;;;;;5002448;28;20215;-81
2022/07/02 02:02:38;;;;;;;2.00;1.10;;;13.70;99.90;;;;;;5003004;28;20538;-81
2022/07/02 02:05:04;;;;;;;9.00;0.90;;;13.70;99.90;;;;;;5003338;28;20203;-82
2022/07/02 02:07:31;;;;;;;1.87;1.03;;;13.70;99.90;;;;;;5037787;28;20748;-81
2022/07/02 02:09:56;;;;;;;1.03;0.97;;;13.70;99.90;;;;;;5004283;28;20221;-80
2022/07/02 02:12:22;;;;;;;2.73;0.90;;;13.70;99.90;;;;;;5001418;28;20219;-80
2022/07/02 02:14:48;;;;;;;1.70;0.90;;;13.70;99.90;;;;;;5004557;28;20264;-80
2022/07/02 02:17:14;;;;;;;1.20;1.07;;;13.70;99.90;;;;;;5004236;28;20192;-82
2022/07/02 02:19:40;;;;;;;3.63;1.13;;;13.70;99.90;;;;;;5003522;28;20217;-82
2022/07/02 02:22:06;;;;;;;2.47;0.90;;;13.70;99.90;;;;;;5004693;28;20215;-81
2022/07/02 02:24:31;;;;;;;8.83;1.37;;;13.70;99.90;;;;;;5000133;28;20684;-82
2022/07/02 02:26:58;;;;;;;2.37;1.07;;;13.70;99.90;;;;;;5000366;28;20268;-79
2022/07/02 02:29:24;;;;;;;1.77;1.23;;;13.70;99.90;;;;;;5004819;28;20596;-82
2022/07/02 02:31:49;;;;;;;1.97;1.03;;;13.70;99.90;;;;;;5036093;28;20275;-81
2022/07/02 02:34:15;;;;;;;3.10;1.03;;;13.70;99.90;;;;;;5032862;28;20261;-81
2022/07/02 02:36:41;;;;;;;1.73;1.00;;;13.60;99.90;;;;;;5032506;28;20254;-80
2022/07/02 02:39:07;;;;;;;1.37;1.27;;;13.70;99.90;;;;;;5001658;28;20222;-80
2022/07/02 02:41:32;;;;;;;2.37;1.30;;;13.70;99.90;;;;;;4984725;28;20195;-82
2022/07/02 02:43:58;;;;;;;2.27;1.43;;;13.70;99.90;;;;;;5000934;28;20261;-80
2022/07/02 02:46:24;;;;;;;1.27;1.13;;;13.70;99.90;;;;;;5003359;28;20206;-81
2022/07/02 02:48:49;;;;;;;1.63;1.30;;;13.70;99.90;;;;;;5001902;28;20238;-81
2022/07/02 02:51:15;;;;;;;3.70;1.33;;;13.60;99.90;;;;;;5004785;28;20307;-81
2022/07/02 02:53:42;;;;;;;1.37;1.20;;;13.60;99.90;;;;;;5000910;28;20219;-81
2022/07/02 02:56:09;;;;;;;1.90;1.17;;;13.60;99.90;;;;;;5032859;28;20218;-81
2022/07/02 02:58:34;;;;;;;2.57;1.00;;;13.60;99.90;;;;;;5004960;28;20684;-81
2022/07/02 03:01:00;;;;;;;6.43;1.73;;;13.60;99.90;;;;;;5000857;28;20206;-81
2022/07/02 03:03:26;;;;;;;8.07;2.43;;;13.50;99.90;;;;;;5004257;28;20237;-81
2022/07/02 03:05:52;;;;;;;2.70;1.07;;;13.50;99.90;;;;;;4999083;28;20222;-81
2022/07/02 03:08:19;;;;;;;0.90;0.90;;;13.40;99.90;;;;;;5006353;28;20196;-81
2022/07/02 03:10:45;;;;;;;2.07;1.87;;;13.50;99.90;;;;;;5000284;28;20231;-80
2022/07/02 03:13:11;;;;;;;3.43;1.20;;;13.40;99.90;;;;;;5000953;28;20227;-81
2022/07/02 03:15:37;;;;;;;1.13;0.97;;;13.40;99.90;;;;;;5001852;28;20285;-81
2022/07/02 03:18:03;;;;;;;2.73;1.43;;;13.40;99.90;;;;;;5002339;28;20226;-80
2022/07/02 03:20:31;;;;;;;3.50;1.20;;;13.40;99.90;;;;;;5000168;28;20195;-82
2022/07/02 03:22:56;;;;;;;2.60;1.40;;;13.40;99.90;;;;;;5001090;28;20179;-81
2022/07/02 03:25:22;;;;;;;5.97;1.47;;;13.30;99.90;;;;;;5002862;28;20218;-81
2022/07/02 03:27:48;;;;;;;2.03;1.20;;;13.30;99.90;;;;;;5006652;28;20222;-80
2022/07/02 03:30:14;;;;;;;3.23;1.33;;;13.20;99.90;;;;;;5005904;28;21048;-81
2022/07/02 03:32:40;;;;;;;2.70;1.77;;;13.10;99.90;;;;;;5004693;28;20273;-81
2022/07/02 03:35:06;;;;;;;3.20;1.57;;;13.20;99.90;;;;;;5018827;28;21028;-80
2022/07/02 03:37:32;;;;;;;9.60;2.33;;;13.20;99.90;;;;;;5004731;28;20861;-81
2022/07/02 03:39:58;;;;;;;1.43;1.33;;;13.20;99.90;;;;;;5008359;28;20813;-81
2022/07/02 03:42:24;;;;;;;4.63;1.30;;;13.30;99.90;;;;;;5010374;28;20221;-80
2022/07/02 03:44:50;;;;;;;1.27;0.97;;;13.30;99.90;;;;;;5006215;28;20253;-81
2022/07/02 03:47:16;;;;;;;4.60;1.60;;;13.30;99.90;;;;;;5007928;28;20187;-81
2022/07/02 03:49:41;;;;;;;1.83;1.43;;;13.40;99.90;;;;;;5008235;28;20237;-81
2022/07/02 03:52:07;;;;;;;1.43;1.33;;;13.40;99.90;;;;;;5002636;28;20588;-82
2022/07/02 03:54:33;;;;;;;4.13;1.60;;;13.50;99.90;;;;;;5003940;28;20243;-80
2022/07/02 03:56:59;;;;;;;3.30;1.47;;;13.60;99.90;;;;;;5008573;28;20551;-82
2022/07/02 03:59:25;;;;;;;4.77;1.60;;;13.60;99.90;;;;;;5005185;28;20198;-81
2022/07/02 04:01:52;;;;;;;3.53;2.07;;;13.70;99.90;;;;;;5004332;28;20195;-80
2022/07/02 04:04:19;;;;;;;7.20;1.40;;;13.80;99.90;;;;;;5004269;28;20219;-81
2022/07/02 04:06:45;;;;;;;5.23;1.57;;;13.90;99.90;;;;;;5004416;28;20219;-80
2022/07/02 04:09:10;;;;;;;1.83;1.43;;;14.00;99.90;;;;;;5004061;28;20285;-81
2022/07/02 04:11:36;;;;;;;1.70;1.57;;;14.00;99.90;;;;;;5007791;28;20198;-82
2022/07/02 04:14:02;;;;;;;1.77;1.60;;;14.10;99.90;;;;;;5006130;28;20398;-80
2022/07/02 04:16:28;;;;;;;3.03;1.50;;;14.20;99.90;;;;;;5004645;28;20285;-80
2022/07/02 04:18:54;;;;;;;2.93;1.60;;;14.20;99.90;;;;;;5005099;28;20226;-81
2022/07/02 04:21:19;;;;;;;1.97;1.30;;;14.30;99.90;;;;;;5008447;28;20222;-81
2022/07/02 04:23:45;;;;;;;5.77;1.57;;;14.40;99.90;;;;;;5003156;28;20227;-81
2022/07/02 04:26:11;;;;;;;5.23;1.60;;;14.40;99.90;;;;;;5004520;28;21152;-80
2022/07/02 04:28:36;;;;;;;4.77;1.77;;;14.50;99.90;;;;;;5006646;28;20225;-82
2022/07/02 04:31:02;;;;;;;1.50;1.40;;;14.60;99.90;;;;;;5008480;28;20746;-82
2022/07/02 04:33:28;;;;;;;2.63;1.60;;;14.60;99.90;;;;;;5003728;28;20217;-81
2022/07/02 04:35:53;;;;;;;2.33;1.50;;;14.70;99.90;;;;;;5003206;28;20238;-81
2022/07/02 04:38:19;;;;;;;1.40;1.03;;;14.80;99.90;;;;;;5006646;28;20633;-80
2022/07/02 04:40:46;;;;;;;2.97;1.40;;;14.90;99.90;;;;;;5005894;28;20195;-81
2022/07/02 04:43:11;;;;;;;1.83;1.60;;;15.00;99.90;;;;;;5003907;28;20582;-81
2022/07/02 04:45:37;;;;;;;3.13;1.57;;;15.10;99.90;;;;;;5003851;28;20688;-80
2022/07/02 04:48:03;;;;;;;1.93;1.77;;;15.20;99.90;;;;;;5006448;28;20366;-81
2022/07/02 04:50:29;;;;;;;8.47;1.63;;;15.30;99.90;;;;;;5005893;28;20203;-81
2022/07/02 04:52:54;;;;;;;4.73;1.83;;;15.40;99.90;;;;;;5001936;28;20705;-81
2022/07/02 04:55:20;;;;;;;3.70;1.40;;;15.50;99.90;;;;;;5035766;28;20250;-80
2022/07/02 04:57:46;;;;;;;2.97;1.60;;;15.50;99.90;;;;;;5005869;28;20646;-81
2022/07/02 05:00:12;;;;;;;2.03;1.43;;;15.60;99.90;;;;;;5003161;28;20219;-81
2022/07/02 05:02:37;;;;;;;4.83;2.33;;;15.80;99.90;;;;;;5003465;28;20202;-81
2022/07/02 05:05:04;;;;;;;3.10;1.40;;;15.80;99.90;;;;;;5003506;28;20446;-81
2022/07/02 05:07:30;;;;;;;2.50;1.17;;;15.90;99.90;;;;;;5003700;28;20277;-80
2022/07/02 05:09:57;;;;;;;8.77;2.87;;;16.00;99.90;;;;;;5004307;28;20277;-81
2022/07/02 05:12:24;;;;;;;1.93;1.70;;;16.10;99.90;;;;;;5008912;28;20325;-81
2022/07/02 05:14:51;;;;;;;3.40;1.80;;;16.30;99.90;;;;;;5021875;28;21005;-82
2022/07/02 05:17:17;;;;;;;1.87;1.50;;;16.30;99.90;;;;;;5017740;28;20183;-81
2022/07/02 05:19:43;;;;;;;8.20;1.93;;;16.90;99.90;;;;;;5004798;28;20223;-82
2022/07/02 05:22:09;;;;;;;3.57;2.27;;;18.80;99.90;;;;;;5007714;28;20226;-83
2022/07/02 05:24:34;;;;;;;2.10;1.67;;;21.40;99.90;;;;;;5035623;28;20219;-82
2022/07/02 05:27:00;;;;;;;3.83;1.30;;;22.30;99.90;;;;;;5003151;28;20677;-81
2022/07/02 05:29:26;;;;;;;3.03;1.33;;;21.50;99.90;;;;;;5006963;28;20286;-82
2022/07/02 05:31:52;;;;;;;2.67;1.73;;;21.90;99.90;;;;;;5006307;28;20218;-83
2022/07/02 05:34:17;;;;;;;2.67;1.67;;;23.90;99.90;;;;;;5004299;28;20727;-81
2022/07/02 05:36:43;;;;;;;1.63;1.13;;;26.40;99.90;;;;;;5003796;28;20226;-83
2022/07/02 05:39:09;;;;;;;3.23;1.50;;;27.30;99.90;;;;;;5016525;28;20354;-81
2022/07/02 05:41:34;;;;;;;4.90;1.70;;;28.70;99.90;;;;;;5002549;28;20640;-81
2022/07/02 05:44:00;;;;;;;3.03;1.60;;;29.20;99.90;;;;;;5021765;28;20195;-81
2022/07/02 05:46:26;;;;;;;3.13;1.27;;;29.50;99.90;;;;;;5006249;28;20711;-81
2022/07/02 05:48:51;;;;;;;5.32;2.15;;;29.40;99.90;;;;;;5004078;28;20220;-82
2022/07/02 05:51:17;;;;;;;2.88;1.10;;;29.30;99.90;;;;;;5001914;28;20427;-83
2022/07/02 05:53:43;;;;;;;5.05;1.50;;;29.60;99.90;;;;;;5026286;28;20802;-84
2022/07/02 05:56:08;;;;;;;4.30;1.08;;;30.70;99.90;;;;;;4989264;28;20203;-83
2022/07/02 05:58:34;;;;;;;2.22;1.15;;;29.90;99.90;;;;;;5000478;28;21166;-84
2022/07/02 06:01:00;;;;;;;2.70;1.00;;;27.90;99.90;;;;;;5001755;28;20223;-83
2022/07/02 06:03:25;;;;;;;3.83;1.48;;;27.00;99.90;;;;;;5003371;28;20221;-82
2022/07/02 06:08:37;;;;;;;2.03;1.10;;;29.90;99.90;;;;;;5002906;28;20195;-83
2022/07/02 06:11:03;;;;;;;3.22;1.35;;;29.60;99.90;;;;;;5005204;28;20199;-82
2022/07/02 06:13:29;;;;;;;2.88;1.20;;;26.50;99.90;;;;;;5001565;28;20475;-84
2022/07/02 06:15:55;;;;;;;1.17;0.85;;;26.80;99.90;;;;;;5000290;28;20592;-81
2022/07/02 06:18:20;;;;;;;1.50;0.95;;;27.00;99.90;;;;;;4989374;28;20657;-83
2022/07/02 06:20:46;;;;;;;2.13;1.25;;;26.70;99.90;;;;;;5000720;28;20222;-82
2022/07/02 06:23:12;;;;;;;2.35;1.00;;;25.30;99.90;;;;;;5004497;28;20183;-84
2022/07/02 06:25:37;;;;;;;4.93;1.23;;;24.30;99.90;;;;;;5022079;28;20215;-83
2022/07/02 06:28:03;;;;;;;1.10;0.98;;;23.10;99.90;;;;;;5001598;28;21070;-82
2022/07/02 06:30:29;;;;;;;1.65;1.10;;;23.80;99.90;;;;;;4999909;28;20261;-83
2022/07/02 06:32:55;;;;;;;3.22;1.65;;;25.60;99.90;;;;;;4984542;28;20279;-83
2022/07/02 06:35:21;;;;;;;2.88;0.88;;;27.20;99.90;;;;;;5003536;28;20214;-82
2022/07/02 06:37:46;;;;;;;4.35;1.30;;;27.70;99.90;;;;;;5001785;28;20191;-85
2022/07/02 06:40:12;;;;;;;5.25;1.25;;;28.70;99.90;;;;;;5000436;28;20223;-84
2022/07/02 06:42:38;;;;;;;1.38;0.80;;;29.50;99.90;;;;;;5003184;28;20211;-86
2022/07/02 06:45:04;;;;;;;5.75;1.13;;;28.20;99.90;;;;;;5004736;28;20222;-83
2022/07/02 06:47:31;;;;;;;6.90;1.02;;;28.20;99.90;;;;;;5006281;28;20238;-89
2022/07/02 06:49:58;;;;;;;1.48;1.25;;;29.10;99.90;;;;;;5000947;28;20640;-84
2022/07/02 06:52:25;;;;;;;3.80;1.20;;;29.10;99.90;;;;;;5002126;28;20283;-84
2022/07/02 06:54:50;;;;;;;3.28;0.82;;;27.10;99.90;;;;;;5003051;28;20222;-85
2022/07/02 06:57:16;;;;;;;4.03;1.30;;;26.20;99.90;;;;;;5003247;28;20219;-86
2022/07/02 06:59:42;;;;;;;3.25;1.10;;;25.20;99.90;;;;;;5003637;28;20226;-85
2022/07/02 07:02:08;;;;;;;4.97;1.10;;;24.80;99.90;;;;;;5002038;28;20651;-83
2022/07/02 07:04:35;;;;;;;2.70;0.90;;;25.50;99.90;;;;;;4999957;28;20583;-86
2022/07/02 07:07:04;;;;;;;2.45;1.15;;;26.30;99.90;;;;;;5002295;28;20571;-85
2022/07/02 07:09:30;;;;;;;4.28;1.20;;;28.30;99.90;;;;;;5005312;28;20305;-86
2022/07/02 07:11:56;;;;;;;3.85;1.05;;;29.80;99.90;;;;;;5002414;28;21112;-85
2022/07/02 07:14:22;;;;;;;3.40;1.17;;;30.10;99.90;;;;;;5023569;28;20217;-86
2022/07/02 07:16:48;;;;;;;2.05;1.00;;;30.30;99.90;;;;;;5002004;28;20218;-84
2022/07/02 07:19:14;;;;;;;1.20;0.90;;;29.30;99.90;;;;;;5000648;28;20301;-83
2022/07/02 07:21:41;;;;;;;3.30;1.15;;;28.70;99.90;;;;;;5003535;28;20227;-86
2022/07/02 07:24:08;;;;;;;3.78;1.08;;;27.40;99.90;;;;;;5004097;28;20289;-83
2022/07/02 07:26:35;;;;;;;5.25;0.90;;;25.40;99.90;;;;;;5001257;28;20201;-84
2022/07/02 07:29:01;;;;;;;3.65;1.05;;;24.40;99.90;;;;;;5004812;28;20181;-84
2022/07/02 07:31:28;;;;;;;3.58;1.00;;;24.00;99.90;;;;;;5001173;28;20306;-83
2022/07/02 07:33:55;;;;;;;2.88;1.00;;;26.00;99.90;;;;;;5001316;28;20214;-81
2022/07/02 07:36:23;;;;;;;1.73;0.90;;;26.40;99.90;;;;;;5000984;28;20261;-83
2022/07/02 07:38:50;;;;;;;4.35;0.90;;;28.00;99.90;;;;;;5001747;28;20218;-84
2022/07/02 07:41:17;;;;;;;3.85;0.80;;;27.90;99.90;;;;;;5001682;28;21044;-88
2022/07/02 07:43:43;;;;;;;0.80;0.80;;;27.30;99.90;;;;;;5003525;28;20350;-84
2022/07/02 07:46:09;;;;;;;5.15;1.15;;;27.90;99.90;;;;;;5001534;28;20382;-85
2022/07/02 07:48:35;;;;;;;4.93;0.93;;;28.40;99.90;;;;;;5000077;28;20207;-83
2022/07/02 07:51:00;;;;;;;1.80;0.80;;;28.90;99.90;;;;;;5041361;28;20679;-83
2022/07/02 07:53:27;;;;;;;1.65;0.90;;;29.50;99.90;;;;;;5000717;28;20914;-87
2022/07/02 07:55:53;;;;;;;1.38;0.88;;;29.60;99.90;;;;;;5001162;28;20268;-86
2022/07/02 07:58:20;;;;;;;3.80;1.15;;;30.10;99.90;;;;;;5039003;28;20257;-84
2022/07/02 08:00:47;;;;;;;3.22;0.98;;;29.40;99.90;;;;;;5001897;28;20246;-86
2022/07/02 08:03:17;;;;;;;3.85;1.05;;;28.40;99.90;;;;;;5002038;28;20215;-85
2022/07/02 08:05:47;;;;;;;3.15;0.90;;;29.00;99.90;;;;;;5000589;28;20215;-84
2022/07/02 08:08:16;;;;;;;2.25;0.90;;;30.30;99.90;;;;;;5006218;28;21080;-85
2022/07/02 08:10:42;;;;;;;3.70;1.02;;;29.90;99.90;;;;;;5003373;28;20219;-83
2022/07/02 08:13:08;;;;;;;1.83;0.98;;;28.60;99.90;;;;;;5005716;28;20211;-83
2022/07/02 08:15:33;;;;;;;1.00;0.90;;;29.00;99.90;;;;;;5002464;28;21288;-83
2022/07/02 08:17:59;;;;;;;1.95;1.08;;;29.10;99.90;;;;;;5009192;28;20214;-84
2022/07/02 08:20:25;;;;;;;1.08;0.95;;;29.60;99.90;;;;;;5007735;28;20179;-85
2022/07/02 08:22:51;;;;;;;4.75;0.90;;;29.10;99.90;;;;;;5003888;28;20186;-83
2022/07/02 08:25:18;;;;;;;1.38;1.27;;;28.60;99.90;;;;;;5040844;28;20725;-82
2022/07/02 08:27:44;;;;;;;0.70;0.70;;;28.70;99.90;;;;;;5005019;28;20220;-83
2022/07/02 08:30:11;;;;;;;1.15;0.80;;;28.90;99.90;;;;;;5042390;28;20264;-86
2022/07/02 08:32:38;;;;;;;4.00;0.95;;;29.10;99.90;;;;;;5041989;28;20249;-85
2022/07/02 08:35:05;;;;;;;1.88;0.80;;;29.50;99.90;;;;;;5042996;28;20325;-84
2022/07/02 08:37:31;;;;;;;1.23;0.75;;;30.10;99.90;;;;;;5041721;28;20199;-83
2022/07/02 08:39:57;;;;;;;3.75;1.30;;;31.80;98.90;;;;;;5006632;28;20242;-88
2022/07/02 08:42:30;;;;;;;0.82;0.70;;;31.40;99.40;;;;;;5004446;28;20219;-83
2022/07/02 08:45:00;;;;;;;3.95;0.88;;;30.70;97.90;;;;;;5005034;28;20250;-87
2022/07/02 08:47:26;;;;;;;2.35;1.10;;;28.60;99.90;;;;;;5002981;28;20270;-84
2022/07/02 08:49:54;;;;;;;3.40;0.60;;;29.40;99.90;;;;;;5042427;28;20198;-84
2022/07/02 08:52:22;;;;;;;4.13;0.93;;;29.70;99.90;;;;;;5009979;28;20591;-85
2022/07/02 08:54:48;;;;;;;0.80;0.70;;;29.40;98.90;;;;;;5004588;28;20227;-85
2022/07/02 08:57:15;;;;;;;1.45;1.10;;;27.70;99.90;;;;;;4988299;28;20215;-84
2022/07/02 08:59:42;;;;;;;2.40;0.73;;;27.60;99.90;;;;;;5003165;28;20246;-83
2022/07/02 09:02:10;;;;;;;2.58;0.77;;;27.70;99.90;;;;;;5006696;28;20190;-86
2022/07/02 09:04:41;;;;;;;0.57;0.57;;;28.60;99.90;;;;;;5008434;28;20211;-84
2022/07/02 09:07:08;;;;;;;5.78;1.00;;;27.60;99.90;;;;;;5028370;28;20647;-86
2022/07/02 09:09:34;;;;;;;2.75;0.80;;;27.10;99.90;;;;;;5006872;28;20212;-85
2022/07/02 09:12:00;;;;;;;1.55;0.63;;;27.50;99.90;;;;;;5005851;28;20246;-83
2022/07/02 09:14:27;;;;;;;3.30;0.75;;;28.30;99.90;;;;;;5005673;28;20215;-85
2022/07/02 09:16:53;;;;;;;1.95;0.75;;;29.00;99.90;;;;;;5005946;28;20175;-85
2022/07/02 09:19:19;;;;;;;3.60;1.77;;;29.00;99.50;;;;;;5009344;28;20675;-85
2022/07/02 09:21:52;;;;;;;2.72;0.90;;;28.80;99.90;;;;;;5002526;28;20734;-85
2022/07/02 09:24:35;;;;;;;2.33;0.82;;;27.50;97.90;;;;;;5005602;28;20875;-84
2022/07/02 09:27:09;;;;;;;0.98;0.75;;;24.80;99.90;;;;;;5003898;28;20219;-85
2022/07/02 09:29:46;;;;;;;2.25;1.02;;;24.20;99.90;;;;;;5003175;28;20171;-86
2022/07/02 09:32:13;;;;;;;4.15;0.90;;;24.20;99.90;;;;;;5042548;28;20190;-86
2022/07/02 09:34:44;;;;;;;2.95;0.95;;;24.00;99.90;;;;;;5040675;28;20210;-84
2022/07/02 09:37:25;;;;;;;1.25;0.90;;;25.30;99.90;;;;;;5007080;28;20472;-84
2022/07/02 09:39:52;;;;;;;0.80;0.80;;;25.60;99.90;;;;;;5004832;28;20207;-83
2022/07/02 09:42:29;;;;;;;4.90;0.95;;;24.90;99.90;;;;;;5004491;28;20218;-85
2022/07/02 09:44:56;;;;;;;3.33;0.90;;;24.00;99.90;;;;;;5004400;28;20207;-84
2022/07/02 09:47:40;;;;;;;1.77;1.10;;;23.30;99.90;;;;;;5001927;28;20194;-83
2022/07/02 09:50:10;;;;;;;3.08;1.15;;;22.50;99.90;;;;;;5019247;28;20188;-83
2022/07/02 09:52:57;;;;;;;1.17;0.80;;;23.10;99.90;;;;;;5003296;28;20769;-83
2022/07/02 09:55:28;;;;;;;1.50;0.90;;;24.80;99.90;;;;;;5004550;28;20269;-84
2022/07/02 09:57:57;;;;;;;1.00;0.88;;;24.70;99.90;;;;;;5001980;28;20265;-82
2022/07/02 10:00:25;;;;;;;1.90;1.20;;;25.80;99.90;;;;;;5004268;28;20219;-83
2022/07/02 10:02:52;;;;;;;2.78;1.10;;;26.40;99.90;;;;;;5005241;28;20210;-84
2022/07/02 10:05:36;;;;;;;0.95;0.80;;;26.50;99.90;;;;;;5001655;28;20297;-83
2022/07/02 10:08:04;;;;;;;2.05;0.80;;;26.20;99.90;;;;;;5000290;28;21152;-82
2022/07/02 10:13:00;;;;;;;3.35;0.90;;;24.50;99.90;;;;;;5001437;28;21249;-84
2022/07/02 10:15:29;;;;;;;3.40;0.90;;;25.70;99.90;;;;;;5002513;28;20234;-82
2022/07/02 10:17:56;;;;;;;0.98;0.60;;;24.80;99.90;;;;;;5003857;28;20215;-83
2022/07/02 10:20:25;;;;;;;1.10;1.00;;;24.50;99.90;;;;;;5001236;28;20310;-83
2022/07/02 10:22:52;;;;;;;1.52;1.02;;;24.20;99.90;;;;;;5002199;28;20688;-82
2022/07/02 10:25:18;;;;;;;4.18;0.80;;;24.50;99.90;;;;;;5000086;28;20708;-84
2022/07/02 10:27:46;;;;;;;1.50;0.82;;;25.10;99.90;;;;;;5039956;28;20708;-83
2022/07/02 10:30:21;;;;;;;1.50;0.70;;;26.30;99.90;;;;;;5002675;28;20215;-82
2022/07/02 10:33:01;;;;;;;2.10;0.95;;;26.50;99.90;;;;;;5031494;28;20218;-83
2022/07/02 10:35:27;;;;;;;2.45;0.90;;;26.10;99.90;;;;;;5034727;28;20237;-84
2022/07/02 10:37:57;;;;;;;0.65;0.65;;;25.30;99.90;;;;;;5000621;28;20190;-84
2022/07/02 10:40:23;;;;;;;0.60;0.60;;;25.20;99.90;;;;;;5001371;28;20698;-83
2022/07/02 10:42:51;;;;;;;1.33;0.80;;;25.10;99.90;;;;;;5000346;28;20269;-84
2022/07/02 10:45:21;;;;;;;1.25;0.73;;;25.30;99.90;;;;;;4996759;28;20250;-83
2022/07/02 10:47:58;;;;;;;1.48;0.63;;;24.70;99.90;;;;;;5000452;28;20223;-84
2022/07/02 10:50:37;;;;;;;0.63;0.63;;;24.40;99.90;;;;;;4999043;28;20588;-82
2022/07/02 10:53:11;;;;;;;3.38;0.60;;;25.30;99.90;;;;;;5000666;28;20226;-84
2022/07/02 10:55:38;;;;;;;0.95;0.63;;;24.90;99.90;;;;;;5002874;28;20299;-83
2022/07/02 10:58:05;;;;;;;1.05;0.65;;;25.00;99.90;;;;;;5035696;28;20242;-84
2022/07/02 11:00:40;;;;;;;0.93;0.70;;;25.00;99.90;;;;;;4997142;28;20237;-83
2022/07/02 11:03:17;;;;;;;0.70;0.70;;;24.80;99.90;;;;;;4999440;28;20573;-83
2022/07/02 11:05:54;;;;;;;1.60;0.63;;;24.50;99.90;;;;;;5000153;28;20248;-86
2022/07/02 11:08:45;;;;;;;1.75;0.80;;;24.40;99.90;;;;;;5018123;28;20175;-86
2022/07/02 11:11:16;;;;;;;1.75;0.82;;;24.40;99.90;;;;;;5001595;28;20226;-83
2022/07/02 11:14:17;;;;;;;0.98;0.88;;;24.30;99.90;;;;;;5000227;28;20226;-82
2022/07/02 11:16:51;;;;;;;1.13;0.88;;;23.60;99.90;;;;;;5000227;28;20226;-84
2022/07/02 11:19:25;;;;;;;1.23;0.88;;;22.80;99.90;;;;;;5000347;28;20317;-84
2022/07/02 11:22:00;;;;;;;7.82;0.90;;;22.80;99.90;;;;;;5000030;28;20258;-84
2022/07/02 11:24:27;;;;;;;1.85;1.00;;;22.60;99.90;;;;;;4999930;28;20215;-82
2022/07/02 11:26:53;;;;;;;4.10;1.17;;;22.70;99.90;;;;;;4999664;28;20235;-83
2022/07/02 11:29:20;;;;;;;1.70;1.00;;;23.40;99.90;;;;;;5001036;28;21133;-84
2022/07/02 11:31:51;;;;;;;1.13;0.85;;;24.00;99.90;;;;;;5014491;28;20199;-83
2022/07/02 11:34:25;;;;;;;1.00;0.95;;;24.80;99.90;;;;;;5005836;28;20251;-84
2022/07/02 11:36:51;;;;;;;4.20;1.30;;;24.90;99.90;;;;;;5040256;28;20251;-84
2022/07/02 11:39:22;;;;;;;2.63;0.90;;;24.60;99.90;;;;;;5000940;28;20659;-83
2022/07/02 11:41:49;;;;;;;2.85;1.35;;;24.10;99.90;;;;;;5004548;28;20215;-82
2022/07/02 11:44:19;;;;;;;2.40;0.88;;;24.00;99.90;;;;;;5005180;28;20248;-84
2022/07/02 11:46:57;;;;;;;2.00;0.90;;;24.50;99.90;;;;;;5005783;28;20226;-84
2022/07/02 11:49:31;;;;;;;1.35;0.82;;;24.60;99.90;;;;;;5005946;28;20302;-85
2022/07/02 11:51:57;;;;;;;0.70;0.70;;;24.60;99.90;;;;;;5008030;28;20277;-85
2022/07/02 11:54:24;;;;;;;1.25;0.80;;;23.50;99.90;;;;;;5011650;28;20229;-84
2022/07/02 11:56:52;;;;;;;1.38;0.65;;;23.10;99.90;;;;;;5011587;28;20231;-86
2022/07/02 11:59:19;;;;;;;0.98;0.77;;;23.10;99.90;;;;;;5006434;28;20271;-85
2022/07/02 12:01:47;;;;;;;1.20;0.90;;;23.40;99.90;;;;;;5006949;28;20322;-83
2022/07/02 12:04:15;;;;;;;1.30;0.65;;;23.50;99.90;;;;;;5008279;28;20216;-85
2022/07/02 12:06:47;;;;;;;3.08;1.45;;;24.00;99.90;;;;;;5042627;28;20224;-85
2022/07/02 12:09:15;;;;;;;1.10;1.00;;;24.70;99.90;;;;;;5044256;28;20699;-84
2022/07/02 12:11:44;;;;;;;1.75;0.90;;;25.00;99.90;;;;;;5045618;28;20211;-85
2022/07/02 12:14:11;;;;;;;1.70;0.95;;;24.90;99.90;;;;;;5009690;28;20191;-84
2022/07/02 12:16:42;;;;;;;2.00;1.02;;;24.60;99.90;;;;;;5044990;28;20254;-83
2022/07/02 12:19:10;;;;;;;1.67;0.93;;;24.00;99.90;;;;;;5002612;28;20281;-83
2022/07/02 12:21:46;;;;;;;4.53;1.00;;;23.90;99.90;;;;;;5023601;28;20676;-84
2022/07/02 12:24:29;;;;;;;1.10;0.98;;;23.70;99.90;;;;;;5003697;28;20217;-83
2022/07/02 12:27:02;;;;;;;0.80;0.80;;;23.60;99.90;;;;;;5003865;28;20215;-85
2022/07/02 12:32:20;;;;;;;1.52;0.85;;;23.60;99.90;;;;;;5004932;28;20581;-83
2022/07/02 12:34:55;;;;;;;1.52;1.10;;;24.00;99.90;;;;;;5007258;28;20223;-82
2022/07/02 12:37:23;;;;;;;0.60;0.60;;;23.70;99.90;;;;;;5038624;28;20603;-84
2022/07/02 12:39:56;;;;;;;0.63;0.63;;;23.70;99.90;;;;;;5004121;28;20214;-83
2022/07/02 12:42:23;;;;;;;4.60;0.90;;;23.90;99.90;;;;;;5001805;28;20215;-84
2022/07/02 12:44:57;;;;;;;5.45;1.08;;;24.20;99.90;;;;;;5005080;28;20235;-84
2022/07/02 12:47:41;;;;;;;2.17;0.80;;;24.30;99.90;;;;;;5025002;28;20191;-83
2022/07/02 12:50:12;;;;;;;0.90;0.80;;;24.20;99.90;;;;;;5004198;28;20388;-82
2022/07/02 12:52:52;;;;;;;2.92;0.88;;;24.40;99.90;;;;;;5040672;28;20266;-84
2022/07/02 12:55:25;;;;;;;0.68;0.68;;;24.10;99.90;;;;;;5006445;28;20219;-84
2022/07/02 12:57:53;;;;;;;1.70;0.70;;;23.70;99.90;;;;;;5006961;28;20362;-83
2022/07/02 13:00:19;;;;;;;1.35;0.80;;;23.80;99.90;;;;;;5005393;28;20608;-85
2022/07/02 13:02:45;;;;;;;1.30;0.60;;;23.60;99.90;;;;;;5002778;28;20230;-82